Time;durP1;ratioP1;P1;durP2;ratioP2;P2;SDS_P1;SDS_P2;PMS_P1;PMS_P2;Temp;Humidity;BMP_temperature;BMP_pressure;BME280_temperature;BME280_humidity;BME280_pressure;Samples;Min_cycle;Max_cycle;Signal;HPM_P1;HPM_P2
2022/03/22 00:02:34;;;;;;;3.35;2.60;;;;;;;5.10;49.70;100000.97;10375037;28;20050;-58
2022/03/22 00:07:39;;;;;;;4.28;2.65;;;;;;;5.07;49.08;100001.16;10374010;28;20048;-57
2022/03/22 00:12:44;;;;;;;3.97;2.40;;;;;;;5.02;49.13;99995.19;10366593;28;20943;-56
2022/03/22 00:17:47;;;;;;;4.65;2.60;;;;;;;4.97;49.00;99997.28;10375076;28;20121;-55
2022/03/22 00:22:52;;;;;;;2.78;2.53;;;;;;;4.94;48.82;100009.84;10405461;28;20116;-55
2022/03/22 00:27:56;;;;;;;2.90;2.45;;;;;;;4.93;48.33;99996.59;10367965;28;20861;-56
2022/03/22 00:33:01;;;;;;;4.47;2.50;;;;;;;4.91;48.20;99998.47;10340879;28;20072;-58
2022/03/22 00:38:08;;;;;;;2.75;2.20;;;;;;;4.89;47.81;99995.03;10373789;28;20518;-56
2022/03/22 00:43:11;;;;;;;3.17;2.58;;;;;;;4.89;47.42;99995.88;10372643;28;20050;-56
2022/03/22 00:48:15;;;;;;;4.13;2.60;;;;;;;4.91;47.56;99999.34;10371544;28;20060;-58
2022/03/22 00:53:19;;;;;;;2.67;2.25;;;;;;;4.90;46.51;99997.59;10355081;28;20054;-57
2022/03/22 00:58:22;;;;;;;3.33;2.35;;;;;;;4.90;46.22;99996.75;10363851;28;20494;-59
2022/03/22 01:03:27;;;;;;;2.67;2.40;;;;;;;4.91;46.13;99996.66;10344822;28;20478;-58
2022/03/22 01:08:32;;;;;;;2.55;2.20;;;;;;;4.90;46.19;100005.63;10372478;28;20141;-57
2022/03/22 01:13:35;;;;;;;2.50;2.10;;;;;;;4.85;46.12;99998.81;10353796;28;20046;-54
2022/03/22 01:18:38;;;;;;;3.65;2.22;;;;;;;4.82;45.81;99999.00;10378905;28;20051;-58
2022/03/22 01:23:43;;;;;;;3.00;2.40;;;;;;;4.80;46.24;99996.41;10379038;28;20049;-57
2022/03/22 01:28:46;;;;;;;3.78;2.40;;;;;;;4.83;45.65;99990.03;10359157;28;20133;-58
2022/03/22 01:33:49;;;;;;;2.90;2.47;;;;;;;4.76;46.08;99990.38;10364043;28;20070;-57
2022/03/22 01:38:53;;;;;;;2.60;2.15;;;;;;;4.74;45.77;99988.75;10371743;28;20104;-56
2022/03/22 01:43:56;;;;;;;3.22;2.42;;;;;;;4.69;46.14;99982.78;10346637;28;20054;-56
2022/03/22 01:49:00;;;;;;;2.85;2.30;;;;;;;4.65;45.94;99990.13;10354075;28;20125;-57
2022/03/22 01:54:07;;;;;;;2.63;2.22;;;;;;;4.59;46.27;99977.97;10352956;28;20050;-58
2022/03/22 01:59:09;;;;;;;3.08;2.40;;;;;;;4.54;46.34;99990.69;10370563;28;20042;-54
2022/03/22 02:09:37;;;;;;;3.88;2.50;;;;;;;4.40;46.75;99990.59;10351856;28;20068;-54
2022/03/22 02:14:40;;;;;;;3.80;2.35;;;;;;;4.33;46.51;99976.72;10369866;28;20050;-56
2022/03/22 02:19:43;;;;;;;3.47;2.30;;;;;;;4.28;46.15;99966.31;10381344;28;20515;-56
2022/03/22 02:24:47;;;;;;;3.33;2.45;;;;;;;4.22;46.38;99958.63;10386849;28;20554;-53
2022/03/22 02:29:50;;;;;;;2.58;2.10;;;;;;;4.16;46.36;99958.97;10347744;28;20053;-54
2022/03/22 02:34:53;;;;;;;3.67;2.20;;;;;;;4.10;46.72;99953.94;10371354;28;20072;-54
2022/03/22 02:39:58;;;;;;;3.65;2.40;;;;;;;4.07;46.65;99944.31;10351346;28;20046;-55
2022/03/22 02:45:01;;;;;;;2.60;2.13;;;;;;;4.02;46.71;99938.34;10369431;28;20501;-58
2022/03/22 02:50:05;;;;;;;2.78;2.30;;;;;;;3.95;46.72;99939.63;10369374;28;20330;-57
2022/03/22 02:55:12;;;;;;;4.25;2.95;;;;;;;3.88;46.89;99935.56;10368871;28;20556;-58
2022/03/22 03:00:16;;;;;;;5.40;2.50;;;;;;;3.78;47.00;99930.69;10344865;28;20046;-57
2022/03/22 03:05:20;;;;;;;3.15;2.20;;;;;;;3.70;47.17;99941.75;10352384;28;20066;-57
2022/03/22 03:10:25;;;;;;;3.38;2.30;;;;;;;3.60;48.03;99945.00;10337315;23;20069;-53
2022/03/22 03:15:28;;;;;;;3.10;2.67;;;;;;;3.48;48.66;99947.34;10377141;28;20045;-53
2022/03/22 03:20:31;;;;;;;3.13;2.70;;;;;;;3.39;49.90;99948.69;10408155;28;20033;-56
2022/03/22 03:25:36;;;;;;;4.72;3.30;;;;;;;3.34;49.72;99944.53;10408370;28;20045;-53
2022/03/22 03:30:39;;;;;;;4.05;3.10;;;;;;;3.20;51.13;99946.06;10398601;28;20042;-56
2022/03/22 03:35:42;;;;;;;3.72;2.67;;;;;;;3.13;51.56;99951.78;10368802;28;20045;-57
2022/03/22 03:51:29;;;;;;;3.47;2.85;;;;;;;2.80;53.98;99945.38;10374854;28;19992;-53
2022/03/22 03:56:34;;;;;;;3.38;2.70;;;;;;;2.75;53.58;99948.28;10413233;28;20045;-56
2022/03/22 04:01:37;;;;;;;4.03;2.78;;;;;;;2.67;54.50;99949.56;10415302;28;20065;-55
2022/03/22 04:06:40;;;;;;;4.10;2.97;;;;;;;2.58;55.14;99945.53;10416374;28;20041;-54
2022/03/22 04:11:45;;;;;;;5.82;3.15;;;;;;;2.50;55.80;99950.38;10414725;28;20541;-53
2022/03/22 04:16:49;;;;;;;5.20;3.20;;;;;;;2.45;57.17;99946.13;10375935;28;20045;-56
2022/03/22 04:21:52;;;;;;;5.07;3.22;;;;;;;2.37;56.81;99934.97;10400563;28;20033;-53
2022/03/22 04:32:41;;;;;;;4.55;2.90;;;;;;;2.30;58.19;99944.16;10412955;28;20071;-54
2022/03/22 04:37:42;;;;;;;4.50;3.15;;;;;;;2.18;58.21;99934.97;10373452;28;20451;-52
2022/03/22 04:42:47;;;;;;;3.65;3.00;;;;;;;2.22;57.09;99928.59;10379407;28;20085;-52
2022/03/22 04:47:50;;;;;;;4.75;3.22;;;;;;;2.20;57.85;99940.19;10405882;28;20048;-52
2022/03/22 04:58:15;;;;;;;3.65;2.90;;;;;;;2.09;59.52;99940.72;10396076;28;20046;-52
2022/03/22 05:03:18;;;;;;;4.68;3.20;;;;;;;2.02;60.20;99942.78;10403285;28;20125;-53
2022/03/22 05:08:21;;;;;;;4.38;3.35;;;;;;;1.93;61.40;99945.88;10377416;28;20045;-55
2022/03/22 05:13:26;;;;;;;3.88;3.25;;;;;;;1.85;61.77;99938.22;10402063;28;20395;-55
2022/03/22 05:18:30;;;;;;;4.50;3.50;;;;;;;1.77;62.54;99948.31;10402824;28;20041;-53
2022/03/22 05:23:33;;;;;;;3.53;3.20;;;;;;;1.74;64.48;99951.13;10370114;28;20045;-54
2022/03/22 05:28:47;;;;;;;5.38;3.30;;;;;;;1.71;66.15;99959.22;10388935;28;20052;-55
2022/03/22 05:33:52;;;;;;;3.88;3.25;;;;;;;1.67;67.13;99963.81;10385500;28;20095;-52
2022/03/22 05:38:55;;;;;;;3.40;3.10;;;;;;;1.61;72.00;99964.06;10376815;28;20056;-52
2022/03/22 05:44:00;;;;;;;5.53;3.72;;;;;;;1.50;73.92;99968.03;10380631;28;20069;-53
2022/03/22 05:49:10;;;;;;;5.15;3.67;;;;;;;1.38;77.37;99979.19;10394907;28;20044;-53
2022/03/22 05:54:17;;;;;;;4.03;3.50;;;;;;;1.30;77.80;99983.97;10395975;28;20049;-52
2022/03/22 05:59:21;;;;;;;7.00;3.90;;;;;;;1.20;80.15;99981.69;10395741;28;20052;-52
2022/03/22 06:04:24;;;;;;;4.22;3.40;;;;;;;1.13;84.44;99995.28;10404616;28;20041;-52
2022/03/22 06:09:27;;;;;;;4.90;3.60;;;;;;;1.11;88.57;99989.16;10381281;28;20053;-55
2022/03/22 06:14:32;;;;;;;5.13;3.20;;;;;;;1.08;90.91;99985.69;10375277;28;20418;-55
2022/03/22 06:19:35;;;;;;;4.35;3.65;;;;;;;1.06;94.11;99987.53;10377157;28;20061;-55
2022/03/22 06:24:38;;;;;;;5.35;3.30;;;;;;;1.09;92.68;99997.19;10386173;28;20048;-52
2022/03/22 06:29:45;;;;;;;4.00;3.60;;;;;;;1.13;88.70;99997.94;10391139;28;20099;-55
2022/03/22 06:34:49;;;;;;;5.15;3.45;;;;;;;1.20;86.79;100004.72;10369749;28;20052;-54
2022/03/22 06:39:52;;;;;;;3.75;3.20;;;;;;;1.27;85.40;100007.97;10383908;28;20046;-55
2022/03/22 06:44:56;;;;;;;3.80;3.40;;;;;;;1.35;88.51;100008.56;10379480;28;20487;-56
2022/03/22 06:50:00;;;;;;;3.88;3.20;;;;;;;1.44;89.54;99994.00;10380647;28;20056;-57
2022/03/22 06:55:06;;;;;;;4.50;3.30;;;;;;;1.54;89.75;100001.53;10382130;28;20088;-53
2022/03/22 07:00:15;;;;;;;4.80;3.65;;;;;;;1.66;91.66;100009.91;10388343;28;20049;-57
2022/03/22 07:05:18;;;;;;;3.95;3.50;;;;;;;1.76;90.55;100013.03;10397800;28;20441;-55
2022/03/22 07:10:21;;;;;;;8.68;3.55;;;;;;;1.88;93.69;100019.59;10395983;28;20395;-53
2022/03/22 07:15:29;;;;;;;6.80;3.55;;;;;;;2.02;96.26;100025.19;10396496;28;20056;-56
2022/03/22 07:20:32;;;;;;;3.83;3.40;;;;;;;2.18;98.22;100027.16;10380594;28;20056;-58
2022/03/22 07:25:35;;;;;;;5.97;3.53;;;;;;;2.36;84.19;100042.31;10392230;28;20056;-53
2022/03/22 07:30:40;;;;;;;4.95;3.53;;;;;;;2.50;82.27;100035.50;10401507;28;20712;-57
2022/03/22 07:35:43;;;;;;;3.50;3.20;;;;;;;2.64;77.74;100048.16;10403873;28;20405;-58
2022/03/22 07:40:46;;;;;;;5.88;3.40;;;;;;;2.82;73.52;100047.34;10387008;28;20117;-58
2022/03/22 07:45:51;;;;;;;3.75;3.40;;;;;;;2.98;72.96;100051.91;10397690;28;20466;-56
2022/03/22 07:56:15;;;;;;;5.90;3.30;;;;;;;3.67;61.72;100053.91;10383830;28;20044;-60
2022/03/22 08:01:20;;;;;;;6.88;3.05;;;;;;;4.00;60.53;100058.44;10400513;28;20045;-59
2022/03/22 08:06:24;;;;;;;4.57;2.65;;;;;;;4.22;59.17;100056.47;10397846;28;20056;-59
2022/03/22 08:11:27;;;;;;;7.78;2.90;;;;;;;4.48;57.55;100057.75;10380102;28;20073;-57
2022/03/22 08:16:32;;;;;;;4.78;3.10;;;;;;;4.66;58.75;100044.34;10385707;28;20578;-57
2022/03/22 08:21:35;;;;;;;4.97;3.33;;;;;;;4.96;56.74;100032.94;10386228;28;20553;-56
2022/03/22 08:26:39;;;;;;;3.35;3.05;;;;;;;5.20;58.78;100042.25;10387295;28;20065;-57
2022/03/22 08:31:44;;;;;;;3.83;3.00;;;;;;;5.37;56.76;100038.63;10389137;28;20056;-56
2022/03/22 08:36:47;;;;;;;5.20;3.00;;;;;;;5.68;55.48;100030.63;10364459;28;20049;-58
2022/03/22 08:41:52;;;;;;;3.88;2.90;;;;;;;5.85;54.54;100027.81;10387997;28;20045;-58
2022/03/22 08:46:59;;;;;;;4.18;3.08;;;;;;;6.09;55.81;100024.63;10390228;28;20155;-54
2022/03/22 08:52:02;;;;;;;5.95;3.10;;;;;;;6.32;55.01;100017.03;10387836;28;20100;-57
2022/03/22 08:57:05;;;;;;;5.10;2.85;;;;;;;6.47;52.89;100008.03;10384512;28;20082;-51
2022/03/22 09:02:10;;;;;;;3.45;3.10;;;;;;;6.68;54.19;100015.69;10386966;28;20045;-54
2022/03/22 09:07:14;;;;;;;3.55;3.10;;;;;;;6.91;54.56;100014.22;10387204;28;20506;-58
2022/03/22 09:12:17;;;;;;;4.38;3.00;;;;;;;7.11;54.20;100004.03;10385738;28;20057;-59
2022/03/22 09:17:21;;;;;;;4.25;3.00;;;;;;;7.37;54.06;99999.63;10386905;28;20062;-53
2022/03/22 09:22:24;;;;;;;4.72;2.90;;;;;;;7.62;51.92;100000.66;10388696;28;20054;-54
2022/03/22 09:27:27;;;;;;;4.93;2.75;;;;;;;7.85;53.66;99985.72;10385408;28;20049;-56
2022/03/22 09:32:32;;;;;;;8.20;2.90;;;;;;;8.15;53.73;99989.06;10382029;28;20603;-56
2022/03/22 09:37:35;;;;;;;6.80;2.80;;;;;;;8.40;50.60;99982.81;10362175;28;20060;-57
2022/03/22 09:42:42;;;;;;;3.78;2.75;;;;;;;8.60;50.12;99977.84;10379286;28;20044;-57
2022/03/22 09:47:47;;;;;;;5.45;2.85;;;;;;;8.82;50.76;99968.28;10376951;28;20052;-54
2022/03/22 09:52:50;;;;;;;4.47;2.88;;;;;;;9.12;49.97;99978.56;10395390;28;20051;-54
2022/03/22 09:57:54;;;;;;;3.83;2.47;;;;;;;9.41;48.04;99965.63;10388280;28;20788;-55
2022/03/22 10:02:59;;;;;;;4.10;2.60;;;;;;;9.68;45.38;99966.38;10383277;28;20447;-52
2022/03/22 10:08:07;;;;;;;5.25;2.72;;;;;;;9.92;45.50;99966.28;10374549;28;20407;-53
2022/03/22 10:13:14;;;;;;;3.10;2.75;;;;;;;10.03;45.42;99962.78;10372060;28;20560;-56
2022/03/22 10:18:25;;;;;;;8.45;2.70;;;;;;;10.40;44.52;99959.91;10366449;28;20064;-50
2022/03/22 10:23:28;;;;;;;5.47;2.38;;;;;;;10.55;45.24;99948.88;10379880;28;20116;-51
2022/03/22 10:28:32;;;;;;;4.15;2.55;;;;;;;10.78;43.72;99939.78;10379734;28;20061;-57
2022/03/22 10:33:36;;;;;;;4.63;2.42;;;;;;;10.92;43.26;99937.78;10389140;28;20052;-56
2022/03/22 10:38:39;;;;;;;3.00;2.25;;;;;;;11.14;41.95;99928.78;10396092;28;20072;-50
2022/03/22 10:43:42;;;;;;;2.63;2.33;;;;;;;11.37;44.04;99926.00;10392553;28;20125;-54
2022/03/22 10:48:47;;;;;;;3.90;2.40;;;;;;;11.68;43.98;99926.97;10393113;28;20052;-50
2022/03/22 10:53:50;;;;;;;5.78;2.38;;;;;;;11.95;42.94;99912.03;10378630;28;20056;-52
2022/03/22 10:58:55;;;;;;;2.25;2.05;;;;;;;12.28;41.43;99909.25;10388916;28;20073;-57
2022/03/22 11:04:00;;;;;;;2.65;2.30;;;;;;;12.51;40.55;99907.22;10369479;28;20046;-53
2022/03/22 11:09:04;;;;;;;3.35;2.20;;;;;;;12.61;39.38;99912.63;10369786;28;20139;-54
2022/03/22 11:14:07;;;;;;;2.70;2.20;;;;;;;12.71;38.18;99909.97;10382559;28;20516;-56
2022/03/22 11:19:12;;;;;;;4.18;2.50;;;;;;;12.88;39.52;99906.59;10388840;28;20088;-52
2022/03/22 11:24:24;;;;;;;3.75;2.30;;;;;;;13.03;37.51;99889.94;10357536;28;20828;-53
2022/03/22 11:29:27;;;;;;;3.35;2.38;;;;;;;13.18;38.78;99893.94;10380710;28;20589;-50
2022/03/22 11:34:32;;;;;;;4.13;2.30;;;;;;;13.26;38.59;99880.56;10379643;28;20096;-51
2022/03/22 11:44:57;;;;;;;2.33;1.90;;;;;;;13.58;35.25;99872.31;10344090;28;20477;-53
2022/03/22 11:50:08;;;;;;;4.40;1.70;;;;;;;13.71;33.12;99867.41;10393467;28;20043;-48
2022/03/22 11:55:15;;;;;;;2.70;1.90;;;;;;;13.87;32.86;99862.25;10395815;28;20079;-49
2022/03/22 12:00:21;;;;;;;4.88;1.95;;;;;;;14.00;32.40;99856.50;10387287;28;20053;-58
2022/03/22 12:05:25;;;;;;;2.58;1.85;;;;;;;14.15;32.23;99843.34;10399380;28;20506;-52
2022/03/22 12:10:28;;;;;;;3.65;1.60;;;;;;;14.36;33.63;99853.06;10397005;28;20486;-55
2022/03/22 12:15:31;;;;;;;2.17;1.90;;;;;;;14.49;33.63;99844.56;10397222;28;20470;-49
2022/03/22 12:20:36;;;;;;;3.10;1.70;;;;;;;14.62;32.28;99842.34;10400002;28;20045;-48
2022/03/22 12:25:40;;;;;;;4.07;2.00;;;;;;;14.77;33.04;99836.44;10389349;28;20042;-49
2022/03/22 12:30:45;;;;;;;3.33;1.60;;;;;;;14.97;31.69;99826.31;10389185;28;20445;-51
2022/03/22 12:35:51;;;;;;;2.33;1.70;;;;;;;15.10;31.52;99826.78;10375073;28;20049;-49
2022/03/22 12:40:54;;;;;;;2.42;1.70;;;;;;;15.30;31.42;99832.00;10387357;28;20041;-49
2022/03/22 12:45:58;;;;;;;3.17;1.60;;;;;;;15.44;31.04;99825.16;10381262;28;20040;-49
2022/03/22 12:51:04;;;;;;;6.45;1.75;;;;;;;15.52;30.90;99818.94;10370546;28;20067;-52
2022/03/22 12:56:14;;;;;;;2.03;1.45;;;;;;;15.54;29.64;99806.88;10383708;28;20045;-50
2022/03/22 13:01:18;;;;;;;3.03;1.40;;;;;;;15.92;30.61;99803.06;10392000;28;20109;-48
2022/03/22 13:06:23;;;;;;;2.25;1.65;;;;;;;16.13;29.63;99810.81;10382444;28;20466;-51
2022/03/22 13:11:29;;;;;;;3.75;1.50;;;;;;;16.38;30.11;99795.44;10387553;28;20088;-57
2022/03/22 13:16:34;;;;;;;4.90;1.40;;;;;;;16.46;29.06;99794.63;10383926;28;20795;-49
2022/03/22 13:21:41;;;;;;;3.22;1.50;;;;;;;16.60;27.74;99798.56;10381487;28;20137;-49
2022/03/22 13:26:53;;;;;;;4.93;1.50;;;;;;;16.16;27.67;99789.59;10392426;28;20088;-49
2022/03/22 13:31:58;;;;;;;2.40;1.30;;;;;;;16.92;28.97;99786.88;10371472;28;20049;-50
2022/03/22 13:37:08;;;;;;;1.77;1.23;;;;;;;17.23;27.34;99788.94;10395940;28;20103;-51
2022/03/22 13:42:15;;;;;;;1.70;1.35;;;;;;;17.63;28.10;99777.31;10392547;28;20049;-53
2022/03/22 13:47:30;;;;;;;1.33;1.20;;;;;;;18.02;28.15;99779.28;10381547;28;20041;-48
2022/03/22 13:52:36;;;;;;;1.70;1.00;;;;;;;18.24;27.96;99782.25;10382905;28;20056;-59
2022/03/22 13:57:39;;;;;;;3.45;1.33;;;;;;;18.73;28.43;99776.50;10368508;28;20385;-58
2022/03/22 14:02:42;;;;;;;1.48;1.30;;;;;;;18.96;27.96;99767.50;10398311;28;20076;-55
2022/03/22 14:07:54;;;;;;;1.55;1.38;;;;;;;18.98;26.43;99779.09;10395300;28;20087;-56
2022/03/22 14:12:58;;;;;;;3.17;1.35;;;;;;;19.14;26.75;99778.09;10369337;28;20596;-56
2022/03/22 14:18:02;;;;;;;1.38;1.27;;;;;;;19.51;27.33;99764.59;10376463;28;20049;-55
2022/03/22 14:23:08;;;;;;;3.72;1.20;;;;;;;19.62;25.99;99766.88;10374764;28;20131;-53
2022/03/22 14:28:12;;;;;;;2.40;1.30;;;;;;;19.51;25.16;99761.88;10371729;28;20054;-56
2022/03/22 14:33:17;;;;;;;3.90;1.60;;;;;;;19.81;26.58;99753.69;10386083;28;20540;-55
2022/03/22 14:38:25;;;;;;;2.00;1.40;;;;;;;19.86;25.87;99743.06;10368043;28;20042;-59
2022/03/22 14:43:29;;;;;;;2.53;1.20;;;;;;;20.17;26.60;99741.97;10391650;28;20104;-53
2022/03/22 14:48:33;;;;;;;2.38;1.30;;;;;;;20.44;26.25;99736.81;10396461;28;20052;-56
2022/03/22 14:58:58;;;;;;;3.22;1.40;;;;;;;20.83;26.49;99731.97;10389974;28;20045;-60
2022/03/22 15:04:02;;;;;;;3.53;1.30;;;;;;;20.81;25.89;99729.44;10367070;28;20053;-53
2022/03/22 15:09:08;;;;;;;1.30;1.20;;;;;;;20.88;24.84;99719.38;10390415;28;20046;-55
2022/03/22 15:14:15;;;;;;;1.75;1.10;;;;;;;21.00;25.69;99716.97;10390190;28;20062;-59
2022/03/22 15:19:18;;;;;;;1.60;1.10;;;;;;;20.87;24.73;99712.22;10387618;28;20080;-57
2022/03/22 15:24:23;;;;;;;1.63;1.20;;;;;;;20.90;25.46;99714.56;10392051;28;20043;-61
2022/03/22 15:29:27;;;;;;;1.83;1.20;;;;;;;20.85;26.01;99702.50;10399148;28;20038;-57
2022/03/22 15:34:31;;;;;;;3.22;1.17;;;;;;;21.03;25.62;99702.03;10369150;28;20049;-56
2022/03/22 15:39:35;;;;;;;3.38;1.30;;;;;;;20.91;24.91;99702.56;10390343;28;20045;-57
2022/03/22 15:44:39;;;;;;;4.10;1.20;;;;;;;20.71;24.48;99698.78;10393409;28;20042;-60
2022/03/22 15:49:42;;;;;;;1.45;1.20;;;;;;;20.41;24.65;99697.00;10402971;28;20050;-60
2022/03/22 15:54:53;;;;;;;1.88;1.10;;;;;;;20.45;24.81;99702.94;10401847;28;20041;-62
2022/03/22 16:00:01;;;;;;;3.83;1.10;;;;;;;20.50;25.79;99689.53;10390087;28;20046;-61
2022/03/22 16:05:11;;;;;;;1.38;1.10;;;;;;;20.46;25.24;99693.69;10382303;28;20511;-62
2022/03/22 16:10:16;;;;;;;1.17;1.08;;;;;;;20.54;25.37;99699.00;10377455;28;20539;-60
2022/03/22 16:15:19;;;;;;;1.10;1.00;;;;;;;20.60;25.61;99694.66;10374506;28;20045;-60
2022/03/22 16:20:22;;;;;;;1.20;1.10;;;;;;;20.40;25.24;99689.00;10363448;28;20534;-56
2022/03/22 16:25:28;;;;;;;2.95;1.20;;;;;;;19.85;25.37;99687.50;10377108;28;20038;-56
2022/03/22 16:30:32;;;;;;;1.88;1.10;;;;;;;19.35;24.95;99695.41;10381695;28;20506;-57
2022/03/22 16:41:00;;;;;;;3.10;1.27;;;;;;;18.85;26.16;99694.19;10385898;28;20061;-57
2022/03/22 16:46:03;;;;;;;5.78;1.40;;;;;;;18.55;26.43;99691.31;10376312;28;20057;-58
2022/03/22 16:51:07;;;;;;;1.83;1.25;;;;;;;18.33;26.45;99696.59;10382440;28;20160;-58
2022/03/22 16:56:11;;;;;;;1.58;1.17;;;;;;;18.00;26.91;99697.63;10384979;28;20041;-58
2022/03/22 17:01:15;;;;;;;3.13;1.38;;;;;;;17.64;27.40;99689.91;10387608;28;20045;-56
2022/03/22 17:06:18;;;;;;;4.93;2.00;;;;;;;17.28;28.14;99694.97;10383606;28;20373;-56
2022/03/22 17:11:22;;;;;;;2.28;1.55;;;;;;;16.83;28.45;99698.06;10386435;28;20406;-58
2022/03/22 17:16:27;;;;;;;2.42;1.70;;;;;;;16.42;28.97;99684.44;10369375;28;20041;-59
2022/03/22 17:21:32;;;;;;;6.72;1.88;;;;;;;16.02;29.68;99695.94;10363330;28;20660;-58
2022/03/22 17:26:37;;;;;;;3.70;1.80;;;;;;;15.54;30.11;99697.41;10376415;28;20052;-59
2022/03/22 17:31:40;;;;;;;4.15;2.00;;;;;;;15.12;31.13;99692.72;10390095;28;20049;-61
2022/03/22 17:36:44;;;;;;;2.55;2.00;;;;;;;14.65;31.04;99697.44;10373865;28;20057;-60
2022/03/22 17:41:48;;;;;;;2.45;1.90;;;;;;;14.27;31.42;99699.47;10394595;28;20050;-59
2022/03/22 17:46:51;;;;;;;3.33;2.05;;;;;;;13.84;31.60;99697.28;10396471;28;20050;-60
2022/03/22 17:51:55;;;;;;;2.20;2.00;;;;;;;13.63;32.06;99699.41;10395210;28;20055;-58
2022/03/22 17:57:00;;;;;;;5.35;2.00;;;;;;;13.37;32.41;99702.75;10392074;28;20052;-58
2022/03/22 18:02:04;;;;;;;4.85;2.97;;;;;;;13.11;32.72;99706.13;10382456;28;20055;-57
2022/03/22 18:07:07;;;;;;;5.35;2.20;;;;;;;12.89;33.86;99702.72;10386624;28;20053;-55
2022/03/22 18:12:11;;;;;;;3.83;2.20;;;;;;;12.71;34.32;99708.00;10374052;28;20057;-56
2022/03/22 18:17:14;;;;;;;2.88;2.20;;;;;;;12.61;34.72;99705.31;10371560;28;20051;-55
2022/03/22 18:22:17;;;;;;;6.32;2.95;;;;;;;12.39;35.78;99713.72;10375939;28;20124;-56
2022/03/22 18:27:22;;;;;;;6.13;2.55;;;;;;;12.11;36.17;99713.53;10353391;28;20055;-53
2022/03/22 18:32:25;;;;;;;4.90;2.65;;;;;;;11.90;36.46;99719.84;10385898;28;20046;-53
2022/03/22 18:37:28;;;;;;;6.72;2.65;;;;;;;11.56;38.27;99720.16;10374671;28;20042;-53
2022/03/22 18:42:35;;;;;;;5.15;2.65;;;;;;;11.40;38.23;99710.72;10380544;28;20041;-54
2022/03/22 18:47:38;;;;;;;5.20;2.60;;;;;;;11.27;37.80;99718.16;10381469;28;20037;-57
2022/03/22 18:52:41;;;;;;;4.85;2.90;;;;;;;11.12;38.36;99724.88;10383865;28;20042;-54
2022/03/22 18:57:48;;;;;;;3.55;2.72;;;;;;;11.00;38.44;99724.97;10389093;28;20486;-54
2022/03/22 19:02:51;;;;;;;3.55;2.90;;;;;;;10.83;39.58;99717.47;10394843;28;20107;-56
2022/03/22 19:07:55;;;;;;;2.90;2.50;;;;;;;10.72;39.27;99718.38;10395785;28;20052;-53
2022/03/22 19:13:00;;;;;;;3.55;2.88;;;;;;;10.46;40.29;99726.84;10392850;28;20049;-56
2022/03/22 19:18:03;;;;;;;5.35;3.10;;;;;;;10.29;40.96;99725.53;10380681;28;20045;-57
2022/03/22 19:23:06;;;;;;;3.30;3.00;;;;;;;10.06;41.18;99722.84;10400529;28;20046;-53
2022/03/22 19:28:10;;;;;;;5.30;3.25;;;;;;;9.83;41.87;99725.59;10398745;28;20056;-60
2022/03/22 19:33:17;;;;;;;6.20;3.13;;;;;;;9.66;42.07;99740.41;10405298;28;20049;-60
2022/03/22 19:38:23;;;;;;;4.53;3.20;;;;;;;9.49;42.43;99741.75;10396634;28;20458;-57
2022/03/22 19:43:28;;;;;;;10.10;3.10;;;;;;;9.36;42.25;99736.50;10396395;28;21477;-59
2022/03/22 19:48:31;;;;;;;4.05;2.90;;;;;;;9.26;42.56;99735.53;10397895;28;20042;-54
2022/03/22 19:53:35;;;;;;;5.00;3.30;;;;;;;9.25;42.56;99736.50;10403370;28;20049;-58
2022/03/22 19:58:39;;;;;;;7.35;3.10;;;;;;;9.08;43.28;99732.44;10401843;28;20065;-58
2022/03/22 20:04:07;;;;;;;6.03;3.00;;;;;;;9.07;42.77;99741.47;10395344;28;20050;-57
2022/03/22 20:09:22;;;;;;;5.97;2.95;;;;;;;9.05;43.16;99744.28;10394707;28;20052;-54
2022/03/22 20:14:28;;;;;;;4.95;3.40;;;;;;;8.99;43.53;99743.91;10393931;28;20136;-61
2022/03/22 20:19:31;;;;;;;5.93;3.25;;;;;;;8.93;42.52;99739.88;10391426;28;20120;-60
2022/03/22 20:24:39;;;;;;;3.97;3.20;;;;;;;8.84;43.79;99736.06;10391709;28;20120;-62
2022/03/22 20:29:43;;;;;;;5.75;3.38;;;;;;;8.74;43.75;99735.03;10384121;28;20537;-63
2022/03/22 20:34:51;;;;;;;5.30;3.40;;;;;;;8.59;44.07;99737.91;10393981;28;20056;-57
2022/03/22 20:39:54;;;;;;;5.88;3.45;;;;;;;8.45;44.23;99732.69;10393840;28;20030;-58
2022/03/22 20:44:59;;;;;;;6.18;3.50;;;;;;;8.31;45.45;99728.38;10396485;28;20441;-53
2022/03/22 20:50:03;;;;;;;3.38;3.08;;;;;;;8.22;44.79;99739.78;10371132;28;20053;-53
2022/03/22 20:55:07;;;;;;;4.78;3.35;;;;;;;8.15;44.45;99731.34;10375723;28;20256;-56
2022/03/22 21:00:12;;;;;;;6.63;3.22;;;;;;;8.10;45.34;99725.44;10389009;28;20168;-54
2022/03/22 21:05:16;;;;;;;8.90;3.40;;;;;;;8.02;45.50;99732.22;10391800;28;20561;-52
2022/03/22 21:10:19;;;;;;;7.47;3.40;;;;;;;7.99;45.34;99729.78;10390149;28;20396;-53
2022/03/22 21:15:24;;;;;;;6.07;3.40;;;;;;;7.96;45.33;99735.34;10430041;23;20050;-56
2022/03/22 21:20:27;;;;;;;3.42;3.10;;;;;;;7.90;45.96;99727.75;10418627;28;20048;-54
2022/03/22 21:25:30;;;;;;;4.65;3.30;;;;;;;7.80;46.53;99732.94;10421898;28;20049;-53
2022/03/22 21:30:35;;;;;;;5.22;3.58;;;;;;;7.49;47.91;99726.22;10421596;28;20155;-55
2022/03/22 21:35:38;;;;;;;8.63;3.55;;;;;;;7.45;47.52;99727.44;10416174;28;20367;-58
2022/03/22 21:40:41;;;;;;;4.68;3.50;;;;;;;7.44;47.68;99723.88;10408690;28;20061;-56
2022/03/22 21:45:46;;;;;;;4.03;3.30;;;;;;;7.39;46.92;99718.84;10399095;28;20049;-57
2022/03/22 21:50:49;;;;;;;6.50;3.80;;;;;;;7.37;46.73;99712.72;10421636;28;20069;-55
2022/03/22 21:55:52;;;;;;;5.65;3.63;;;;;;;7.43;46.11;99721.31;10422010;28;20508;-58
2022/03/22 22:00:57;;;;;;;4.05;3.10;;;;;;;7.37;46.24;99718.09;10424615;28;20490;-60
2022/03/22 22:06:01;;;;;;;6.10;3.28;;;;;;;7.34;46.55;99721.00;10420898;28;20045;-56
2022/03/22 22:11:05;;;;;;;5.85;3.65;;;;;;;7.26;47.72;99720.66;10402793;28;20052;-57
2022/03/22 22:16:10;;;;;;;5.35;3.70;;;;;;;7.12;47.69;99710.06;10419637;28;20052;-58
2022/03/22 22:21:13;;;;;;;6.13;3.75;;;;;;;6.98;48.61;99706.53;10420153;28;20053;-56
2022/03/22 22:26:18;;;;;;;5.88;3.50;;;;;;;6.90;48.00;99708.88;10423660;28;20049;-52
2022/03/22 22:36:39;;;;;;;4.07;3.58;;;;;;;6.73;49.26;99713.59;10395159;28;20516;-59
2022/03/22 22:41:43;;;;;;;6.50;4.10;;;;;;;6.61;48.87;99714.41;10417219;28;20057;-55
2022/03/22 22:46:47;;;;;;;6.55;3.83;;;;;;;6.47;49.96;99709.97;10425917;28;20037;-56
2022/03/22 22:51:54;;;;;;;5.03;3.90;;;;;;;6.35;50.63;99706.31;10425565;28;20056;-53
2022/03/22 22:56:58;;;;;;;5.60;4.00;;;;;;;6.13;50.66;99699.72;10422259;28;20037;-54
2022/03/22 23:02:02;;;;;;;6.95;4.25;;;;;;;6.08;51.29;99706.34;10414999;28;20059;-54
2022/03/22 23:12:31;;;;;;;10.77;4.68;;;;;;;5.78;53.71;99701.97;10395373;28;20077;-54
2022/03/22 23:17:36;;;;;;;6.20;4.53;;;;;;;5.64;54.90;99697.53;10420116;28;21178;-57
2022/03/22 23:22:39;;;;;;;5.25;4.45;;;;;;;5.52;56.11;99692.00;10418222;28;20493;-56
2022/03/22 23:27:44;;;;;;;6.43;4.22;;;;;;;5.42;57.90;99703.38;10419729;28;20055;-52
2022/03/22 23:32:49;;;;;;;5.30;4.70;;;;;;;5.33;59.70;99702.16;10419173;28;20037;-56
2022/03/22 23:37:52;;;;;;;5.68;4.53;;;;;;;5.23;60.81;99694.69;10422181;28;20047;-54
2022/03/22 23:42:55;;;;;;;5.78;4.60;;;;;;;5.18;62.30;99703.94;10421265;28;20421;-55
2022/03/22 23:48:25;;;;;;;9.32;4.55;;;;;;;5.07;67.58;99699.28;10429083;28;20086;-56
2022/03/22 23:53:28;;;;;;;8.35;4.15;;;;;;;5.04;64.88;99699.47;10411843;28;20132;-57
2022/03/22 23:58:31;;;;;;;5.60;4.30;;;;;;;4.99;64.43;99696.22;10408406;28;20072;-54
